sensor_id;sensor_type;location;lat;lon;timestamp;P1;durP1;ratioP1;P2;durP2;ratioP2
12962;SDS011;6546;49.882;8.666;2023-02-26T00:01:37;4.90;;;2.93;;
12962;SDS011;6546;49.882;8.666;2023-02-26T00:04:05;7.33;;;2.27;;
12962;SDS011;6546;49.882;8.666;2023-02-26T00:06:33;4.73;;;2.33;;
12962;SDS011;6546;49.882;8.666;2023-02-26T00:09:02;4.67;;;2.43;;
12962;SDS011;6546;49.882;8.666;2023-02-26T00:11:29;4.70;;;2.60;;
12962;SDS011;6546;49.882;8.666;2023-02-26T00:13:58;5.17;;;3.00;;
12962;SDS011;6546;49.882;8.666;2023-02-26T00:16:26;2.57;;;2.10;;
12962;SDS011;6546;49.882;8.666;2023-02-26T00:18:54;6.93;;;2.60;;
12962;SDS011;6546;49.882;8.666;2023-02-26T00:21:22;4.50;;;2.40;;
12962;SDS011;6546;49.882;8.666;2023-02-26T00:23:50;3.83;;;2.17;;
12962;SDS011;6546;49.882;8.666;2023-02-26T00:26:18;5.20;;;2.33;;
12962;SDS011;6546;49.882;8.666;2023-02-26T00:28:45;5.27;;;2.53;;
12962;SDS011;6546;49.882;8.666;2023-02-26T00:31:14;4.17;;;2.40;;
12962;SDS011;6546;49.882;8.666;2023-02-26T00:33:42;3.60;;;2.40;;
12962;SDS011;6546;49.882;8.666;2023-02-26T00:36:12;5.30;;;2.50;;
12962;SDS011;6546;49.882;8.666;2023-02-26T00:38:46;3.37;;;2.50;;
12962;SDS011;6546;49.882;8.666;2023-02-26T00:41:20;4.90;;;2.20;;
12962;SDS011;6546;49.882;8.666;2023-02-26T00:43:47;4.73;;;1.97;;
12962;SDS011;6546;49.882;8.666;2023-02-26T00:46:18;3.50;;;2.77;;
12962;SDS011;6546;49.882;8.666;2023-02-26T00:48:52;5.73;;;2.53;;
12962;SDS011;6546;49.882;8.666;2023-02-26T00:51:26;4.23;;;2.57;;
12962;SDS011;6546;49.882;8.666;2023-02-26T00:53:58;5.40;;;2.50;;
12962;SDS011;6546;49.882;8.666;2023-02-26T00:56:30;4.27;;;2.50;;
12962;SDS011;6546;49.882;8.666;2023-02-26T00:58:56;4.33;;;2.37;;
12962;SDS011;6546;49.882;8.666;2023-02-26T01:01:24;4.87;;;2.60;;
12962;SDS011;6546;49.882;8.666;2023-02-26T01:03:51;5.50;;;2.50;;
12962;SDS011;6546;49.882;8.666;2023-02-26T01:06:19;4.77;;;2.67;;
12962;SDS011;6546;49.882;8.666;2023-02-26T01:08:49;5.27;;;2.63;;
12962;SDS011;6546;49.882;8.666;2023-02-26T01:11:20;3.60;;;2.23;;
12962;SDS011;6546;49.882;8.666;2023-02-26T01:13:47;5.23;;;2.13;;
12962;SDS011;6546;49.882;8.666;2023-02-26T01:16:16;3.43;;;2.43;;
12962;SDS011;6546;49.882;8.666;2023-02-26T01:18:49;2.50;;;2.10;;
12962;SDS011;6546;49.882;8.666;2023-02-26T01:21:22;3.40;;;2.33;;
12962;SDS011;6546;49.882;8.666;2023-02-26T01:23:56;3.73;;;2.50;;
12962;SDS011;6546;49.882;8.666;2023-02-26T01:26:26;5.67;;;2.10;;
12962;SDS011;6546;49.882;8.666;2023-02-26T01:28:54;5.67;;;2.30;;
12962;SDS011;6546;49.882;8.666;2023-02-26T01:31:34;5.07;;;2.40;;
12962;SDS011;6546;49.882;8.666;2023-02-26T01:34:07;4.27;;;2.37;;
12962;SDS011;6546;49.882;8.666;2023-02-26T01:36:40;6.60;;;2.43;;
12962;SDS011;6546;49.882;8.666;2023-02-26T01:39:16;4.83;;;2.70;;
12962;SDS011;6546;49.882;8.666;2023-02-26T01:41:50;4.83;;;2.57;;
12962;SDS011;6546;49.882;8.666;2023-02-26T01:44:22;4.27;;;2.50;;
12962;SDS011;6546;49.882;8.666;2023-02-26T01:47:05;4.97;;;2.20;;
12962;SDS011;6546;49.882;8.666;2023-02-26T01:49:40;5.10;;;2.40;;
12962;SDS011;6546;49.882;8.666;2023-02-26T01:55:21;3.47;;;2.10;;
12962;SDS011;6546;49.882;8.666;2023-02-26T01:57:52;4.50;;;2.37;;
12962;SDS011;6546;49.882;8.666;2023-02-26T02:00:22;3.93;;;2.60;;
12962;SDS011;6546;49.882;8.666;2023-02-26T02:05:26;3.67;;;2.30;;
12962;SDS011;6546;49.882;8.666;2023-02-26T02:07:56;4.67;;;2.40;;
12962;SDS011;6546;49.882;8.666;2023-02-26T02:10:25;6.63;;;3.20;;
12962;SDS011;6546;49.882;8.666;2023-02-26T02:12:54;5.77;;;2.70;;
12962;SDS011;6546;49.882;8.666;2023-02-26T02:15:29;4.73;;;2.50;;
12962;SDS011;6546;49.882;8.666;2023-02-26T02:18:04;4.67;;;2.40;;
12962;SDS011;6546;49.882;8.666;2023-02-26T02:20:55;5.37;;;2.60;;
12962;SDS011;6546;49.882;8.666;2023-02-26T02:23:37;5.40;;;2.27;;
12962;SDS011;6546;49.882;8.666;2023-02-26T02:26:12;3.00;;;2.10;;
12962;SDS011;6546;49.882;8.666;2023-02-26T02:28:59;5.23;;;2.30;;
12962;SDS011;6546;49.882;8.666;2023-02-26T02:31:51;4.70;;;2.20;;
12962;SDS011;6546;49.882;8.666;2023-02-26T02:34:24;6.40;;;2.67;;
12962;SDS011;6546;49.882;8.666;2023-02-26T02:36:55;3.50;;;2.40;;
12962;SDS011;6546;49.882;8.666;2023-02-26T02:39:27;4.33;;;2.47;;
12962;SDS011;6546;49.882;8.666;2023-02-26T02:41:57;3.50;;;2.10;;
12962;SDS011;6546;49.882;8.666;2023-02-26T02:44:26;6.27;;;2.73;;
12962;SDS011;6546;49.882;8.666;2023-02-26T02:46:57;4.83;;;2.27;;
12962;SDS011;6546;49.882;8.666;2023-02-26T02:49:26;4.60;;;2.27;;
12962;SDS011;6546;49.882;8.666;2023-02-26T02:51:57;5.60;;;2.40;;
12962;SDS011;6546;49.882;8.666;2023-02-26T02:54:30;4.97;;;2.30;;
12962;SDS011;6546;49.882;8.666;2023-02-26T02:57:02;3.23;;;2.10;;
12962;SDS011;6546;49.882;8.666;2023-02-26T02:59:36;2.97;;;2.27;;
12962;SDS011;6546;49.882;8.666;2023-02-26T03:02:09;3.23;;;2.03;;
12962;SDS011;6546;49.882;8.666;2023-02-26T03:04:38;4.17;;;2.30;;
12962;SDS011;6546;49.882;8.666;2023-02-26T03:07:07;5.63;;;2.40;;
12962;SDS011;6546;49.882;8.666;2023-02-26T03:09:34;4.00;;;2.20;;
12962;SDS011;6546;49.882;8.666;2023-02-26T03:12:01;4.63;;;2.30;;
12962;SDS011;6546;49.882;8.666;2023-02-26T03:14:28;3.60;;;2.17;;
12962;SDS011;6546;49.882;8.666;2023-02-26T03:16:59;3.60;;;1.90;;
12962;SDS011;6546;49.882;8.666;2023-02-26T03:19:37;6.50;;;2.10;;
12962;SDS011;6546;49.882;8.666;2023-02-26T03:22:12;5.43;;;1.97;;
12962;SDS011;6546;49.882;8.666;2023-02-26T03:24:45;2.53;;;1.73;;
12962;SDS011;6546;49.882;8.666;2023-02-26T03:27:16;3.40;;;1.77;;
12962;SDS011;6546;49.882;8.666;2023-02-26T03:29:49;3.30;;;1.63;;
12962;SDS011;6546;49.882;8.666;2023-02-26T03:32:20;3.37;;;1.80;;
12962;SDS011;6546;49.882;8.666;2023-02-26T03:34:53;2.33;;;1.60;;
12962;SDS011;6546;49.882;8.666;2023-02-26T03:37:25;2.30;;;1.37;;
12962;SDS011;6546;49.882;8.666;2023-02-26T03:39:57;2.23;;;1.50;;
12962;SDS011;6546;49.882;8.666;2023-02-26T03:42:30;1.87;;;1.20;;
12962;SDS011;6546;49.882;8.666;2023-02-26T03:45:02;3.00;;;1.50;;
12962;SDS011;6546;49.882;8.666;2023-02-26T03:47:32;3.13;;;1.30;;
12962;SDS011;6546;49.882;8.666;2023-02-26T03:50:03;5.60;;;1.37;;
12962;SDS011;6546;49.882;8.666;2023-02-26T03:52:33;2.63;;;1.00;;
12962;SDS011;6546;49.882;8.666;2023-02-26T03:55:04;4.47;;;1.20;;
12962;SDS011;6546;49.882;8.666;2023-02-26T03:57:35;2.33;;;1.20;;
12962;SDS011;6546;49.882;8.666;2023-02-26T04:00:03;3.03;;;1.30;;
12962;SDS011;6546;49.882;8.666;2023-02-26T04:02:30;2.83;;;1.10;;
12962;SDS011;6546;49.882;8.666;2023-02-26T04:05:05;1.83;;;1.20;;
12962;SDS011;6546;49.882;8.666;2023-02-26T04:07:38;3.57;;;1.30;;
12962;SDS011;6546;49.882;8.666;2023-02-26T04:10:05;4.33;;;1.40;;
12962;SDS011;6546;49.882;8.666;2023-02-26T04:12:34;2.03;;;1.40;;
12962;SDS011;6546;49.882;8.666;2023-02-26T04:15:00;4.30;;;1.57;;
12962;SDS011;6546;49.882;8.666;2023-02-26T04:17:29;2.33;;;1.30;;
12962;SDS011;6546;49.882;8.666;2023-02-26T04:19:56;5.23;;;1.43;;
12962;SDS011;6546;49.882;8.666;2023-02-26T04:22:24;2.67;;;1.60;;
12962;SDS011;6546;49.882;8.666;2023-02-26T04:24:50;2.93;;;1.60;;
12962;SDS011;6546;49.882;8.666;2023-02-26T04:27:17;2.27;;;1.47;;
12962;SDS011;6546;49.882;8.666;2023-02-26T04:29:43;2.33;;;1.67;;
12962;SDS011;6546;49.882;8.666;2023-02-26T04:32:10;3.37;;;2.00;;
12962;SDS011;6546;49.882;8.666;2023-02-26T04:34:37;3.43;;;2.03;;
12962;SDS011;6546;49.882;8.666;2023-02-26T04:37:03;3.40;;;1.67;;
12962;SDS011;6546;49.882;8.666;2023-02-26T04:39:31;4.40;;;1.63;;
12962;SDS011;6546;49.882;8.666;2023-02-26T04:41:58;2.70;;;1.80;;
12962;SDS011;6546;49.882;8.666;2023-02-26T04:44:25;2.00;;;1.60;;
12962;SDS011;6546;49.882;8.666;2023-02-26T04:46:51;5.80;;;2.40;;
12962;SDS011;6546;49.882;8.666;2023-02-26T04:49:18;3.97;;;1.57;;
12962;SDS011;6546;49.882;8.666;2023-02-26T04:51:45;5.93;;;1.90;;
12962;SDS011;6546;49.882;8.666;2023-02-26T04:54:11;4.37;;;2.03;;
12962;SDS011;6546;49.882;8.666;2023-02-26T04:56:39;2.07;;;1.87;;
12962;SDS011;6546;49.882;8.666;2023-02-26T04:59:06;2.90;;;1.80;;
12962;SDS011;6546;49.882;8.666;2023-02-26T05:01:32;5.00;;;2.00;;
12962;SDS011;6546;49.882;8.666;2023-02-26T05:03:59;3.97;;;2.10;;
12962;SDS011;6546;49.882;8.666;2023-02-26T05:06:26;4.83;;;2.00;;
12962;SDS011;6546;49.882;8.666;2023-02-26T05:08:53;4.63;;;2.10;;
12962;SDS011;6546;49.882;8.666;2023-02-26T05:11:19;5.27;;;2.50;;
12962;SDS011;6546;49.882;8.666;2023-02-26T05:13:47;5.50;;;2.20;;
12962;SDS011;6546;49.882;8.666;2023-02-26T05:16:14;3.00;;;1.97;;
12962;SDS011;6546;49.882;8.666;2023-02-26T05:18:40;3.77;;;1.90;;
12962;SDS011;6546;49.882;8.666;2023-02-26T05:21:07;5.40;;;2.47;;
12962;SDS011;6546;49.882;8.666;2023-02-26T05:23:34;5.60;;;1.97;;
12962;SDS011;6546;49.882;8.666;2023-02-26T05:26:00;4.67;;;1.80;;
12962;SDS011;6546;49.882;8.666;2023-02-26T05:28:27;4.03;;;2.10;;
12962;SDS011;6546;49.882;8.666;2023-02-26T05:30:56;3.40;;;2.10;;
12962;SDS011;6546;49.882;8.666;2023-02-26T05:33:23;5.40;;;2.03;;
12962;SDS011;6546;49.882;8.666;2023-02-26T05:35:49;4.20;;;2.20;;
12962;SDS011;6546;49.882;8.666;2023-02-26T05:38:16;4.43;;;1.97;;
12962;SDS011;6546;49.882;8.666;2023-02-26T05:40:42;8.27;;;2.40;;
12962;SDS011;6546;49.882;8.666;2023-02-26T05:43:09;5.63;;;2.70;;
12962;SDS011;6546;49.882;8.666;2023-02-26T05:45:36;3.93;;;1.90;;
12962;SDS011;6546;49.882;8.666;2023-02-26T05:48:04;5.67;;;2.70;;
12962;SDS011;6546;49.882;8.666;2023-02-26T05:50:31;5.53;;;2.70;;
12962;SDS011;6546;49.882;8.666;2023-02-26T05:52:57;5.13;;;2.40;;
12962;SDS011;6546;49.882;8.666;2023-02-26T05:55:24;3.50;;;2.40;;
12962;SDS011;6546;49.882;8.666;2023-02-26T05:57:51;5.13;;;2.50;;
12962;SDS011;6546;49.882;8.666;2023-02-26T06:00:17;3.93;;;2.43;;
12962;SDS011;6546;49.882;8.666;2023-02-26T06:02:44;4.80;;;2.50;;
12962;SDS011;6546;49.882;8.666;2023-02-26T06:05:13;5.27;;;2.27;;
12962;SDS011;6546;49.882;8.666;2023-02-26T06:07:39;5.07;;;2.20;;
12962;SDS011;6546;49.882;8.666;2023-02-26T06:10:06;5.27;;;2.40;;
12962;SDS011;6546;49.882;8.666;2023-02-26T06:12:35;4.03;;;2.40;;
12962;SDS011;6546;49.882;8.666;2023-02-26T06:15:02;4.07;;;2.23;;
12962;SDS011;6546;49.882;8.666;2023-02-26T06:17:29;4.00;;;2.20;;
12962;SDS011;6546;49.882;8.666;2023-02-26T06:19:56;3.10;;;2.13;;
12962;SDS011;6546;49.882;8.666;2023-02-26T06:22:23;5.03;;;2.20;;
12962;SDS011;6546;49.882;8.666;2023-02-26T06:24:50;4.37;;;2.50;;
12962;SDS011;6546;49.882;8.666;2023-02-26T06:27:19;3.27;;;2.20;;
12962;SDS011;6546;49.882;8.666;2023-02-26T06:29:45;5.63;;;2.30;;
12962;SDS011;6546;49.882;8.666;2023-02-26T06:32:12;4.47;;;2.10;;
12962;SDS011;6546;49.882;8.666;2023-02-26T06:34:38;4.43;;;2.40;;
12962;SDS011;6546;49.882;8.666;2023-02-26T06:37:05;8.63;;;2.30;;
12962;SDS011;6546;49.882;8.666;2023-02-26T06:39:33;3.80;;;2.30;;
12962;SDS011;6546;49.882;8.666;2023-02-26T06:42:00;5.83;;;2.50;;
12962;SDS011;6546;49.882;8.666;2023-02-26T06:44:26;5.60;;;2.70;;
12962;SDS011;6546;49.882;8.666;2023-02-26T06:46:53;2.83;;;2.23;;
12962;SDS011;6546;49.882;8.666;2023-02-26T06:49:19;3.93;;;2.43;;
12962;SDS011;6546;49.882;8.666;2023-02-26T06:51:46;6.67;;;2.97;;
12962;SDS011;6546;49.882;8.666;2023-02-26T06:54:13;4.83;;;2.47;;
12962;SDS011;6546;49.882;8.666;2023-02-26T06:56:41;5.97;;;2.60;;
12962;SDS011;6546;49.882;8.666;2023-02-26T06:59:07;5.37;;;2.77;;
12962;SDS011;6546;49.882;8.666;2023-02-26T07:01:34;3.60;;;2.40;;
12962;SDS011;6546;49.882;8.666;2023-02-26T07:04:00;6.83;;;3.13;;
12962;SDS011;6546;49.882;8.666;2023-02-26T07:06:27;3.27;;;2.40;;
12962;SDS011;6546;49.882;8.666;2023-02-26T07:08:54;5.37;;;2.60;;
12962;SDS011;6546;49.882;8.666;2023-02-26T07:11:21;5.60;;;2.60;;
12962;SDS011;6546;49.882;8.666;2023-02-26T07:13:49;4.60;;;2.53;;
12962;SDS011;6546;49.882;8.666;2023-02-26T07:16:16;6.27;;;2.70;;
12962;SDS011;6546;49.882;8.666;2023-02-26T07:18:43;6.23;;;2.70;;
12962;SDS011;6546;49.882;8.666;2023-02-26T07:21:09;3.40;;;2.50;;
12962;SDS011;6546;49.882;8.666;2023-02-26T07:23:36;3.00;;;2.40;;
12962;SDS011;6546;49.882;8.666;2023-02-26T07:26:03;9.00;;;2.93;;
12962;SDS011;6546;49.882;8.666;2023-02-26T07:28:30;6.00;;;2.50;;
12962;SDS011;6546;49.882;8.666;2023-02-26T07:30:58;5.57;;;2.30;;
12962;SDS011;6546;49.882;8.666;2023-02-26T07:33:24;3.70;;;2.30;;
12962;SDS011;6546;49.882;8.666;2023-02-26T07:35:52;4.33;;;2.30;;
12962;SDS011;6546;49.882;8.666;2023-02-26T07:38:19;6.30;;;2.80;;
12962;SDS011;6546;49.882;8.666;2023-02-26T07:40:45;4.43;;;2.40;;
12962;SDS011;6546;49.882;8.666;2023-02-26T07:43:12;4.40;;;2.40;;
12962;SDS011;6546;49.882;8.666;2023-02-26T07:45:39;5.40;;;2.50;;
12962;SDS011;6546;49.882;8.666;2023-02-26T07:48:07;4.40;;;2.13;;
12962;SDS011;6546;49.882;8.666;2023-02-26T07:50:33;5.13;;;2.40;;
12962;SDS011;6546;49.882;8.666;2023-02-26T07:53:00;5.00;;;2.40;;
12962;SDS011;6546;49.882;8.666;2023-02-26T07:55:26;2.37;;;1.77;;
12962;SDS011;6546;49.882;8.666;2023-02-26T07:57:53;4.97;;;2.27;;
12962;SDS011;6546;49.882;8.666;2023-02-26T08:00:20;3.73;;;1.90;;
12962;SDS011;6546;49.882;8.666;2023-02-26T08:02:47;4.07;;;2.07;;
12962;SDS011;6546;49.882;8.666;2023-02-26T08:05:15;3.40;;;1.90;;
12962;SDS011;6546;49.882;8.666;2023-02-26T08:07:41;6.17;;;2.30;;
12962;SDS011;6546;49.882;8.666;2023-02-26T08:10:08;3.00;;;1.90;;
12962;SDS011;6546;49.882;8.666;2023-02-26T08:12:36;4.40;;;1.93;;
12962;SDS011;6546;49.882;8.666;2023-02-26T08:15:03;4.07;;;2.27;;
12962;SDS011;6546;49.882;8.666;2023-02-26T08:17:29;3.80;;;1.80;;
12962;SDS011;6546;49.882;8.666;2023-02-26T08:19:56;2.43;;;1.90;;
12962;SDS011;6546;49.882;8.666;2023-02-26T08:22:24;2.40;;;1.97;;
12962;SDS011;6546;49.882;8.666;2023-02-26T08:24:51;11.63;;;2.67;;
12962;SDS011;6546;49.882;8.666;2023-02-26T08:27:17;3.73;;;1.87;;
12962;SDS011;6546;49.882;8.666;2023-02-26T08:29:44;4.30;;;1.87;;
12962;SDS011;6546;49.882;8.666;2023-02-26T08:32:14;3.87;;;2.03;;
12962;SDS011;6546;49.882;8.666;2023-02-26T08:34:43;3.63;;;2.00;;
12962;SDS011;6546;49.882;8.666;2023-02-26T08:37:10;6.00;;;1.90;;
12962;SDS011;6546;49.882;8.666;2023-02-26T08:39:38;5.10;;;1.90;;
12962;SDS011;6546;49.882;8.666;2023-02-26T08:42:05;3.40;;;1.87;;
12962;SDS011;6546;49.882;8.666;2023-02-26T08:44:33;4.23;;;1.80;;
12962;SDS011;6546;49.882;8.666;2023-02-26T08:47:00;4.83;;;1.60;;
12962;SDS011;6546;49.882;8.666;2023-02-26T08:49:27;3.17;;;1.70;;
12962;SDS011;6546;49.882;8.666;2023-02-26T08:51:54;4.10;;;1.70;;
12962;SDS011;6546;49.882;8.666;2023-02-26T08:54:21;2.33;;;1.73;;
12962;SDS011;6546;49.882;8.666;2023-02-26T08:56:49;3.27;;;1.70;;
12962;SDS011;6546;49.882;8.666;2023-02-26T08:59:17;4.67;;;2.00;;
12962;SDS011;6546;49.882;8.666;2023-02-26T09:01:44;3.30;;;1.93;;
12962;SDS011;6546;49.882;8.666;2023-02-26T09:04:10;2.70;;;1.73;;
12962;SDS011;6546;49.882;8.666;2023-02-26T09:06:37;2.53;;;1.50;;
12962;SDS011;6546;49.882;8.666;2023-02-26T09:09:04;3.37;;;1.60;;
12962;SDS011;6546;49.882;8.666;2023-02-26T09:11:30;2.73;;;1.40;;
12962;SDS011;6546;49.882;8.666;2023-02-26T09:13:58;2.17;;;1.17;;
12962;SDS011;6546;49.882;8.666;2023-02-26T09:16:26;2.03;;;1.40;;
12962;SDS011;6546;49.882;8.666;2023-02-26T09:18:53;2.33;;;1.23;;
12962;SDS011;6546;49.882;8.666;2023-02-26T09:21:19;2.97;;;1.30;;
12962;SDS011;6546;49.882;8.666;2023-02-26T09:23:47;5.37;;;2.10;;
12962;SDS011;6546;49.882;8.666;2023-02-26T09:26:13;2.63;;;1.40;;
12962;SDS011;6546;49.882;8.666;2023-02-26T09:28:40;3.00;;;1.67;;
12962;SDS011;6546;49.882;8.666;2023-02-26T09:31:08;3.60;;;1.80;;
12962;SDS011;6546;49.882;8.666;2023-02-26T09:33:35;1.90;;;1.40;;
12962;SDS011;6546;49.882;8.666;2023-02-26T09:36:02;3.17;;;1.37;;
12962;SDS011;6546;49.882;8.666;2023-02-26T09:38:29;2.83;;;1.50;;
12962;SDS011;6546;49.882;8.666;2023-02-26T09:40:57;2.47;;;1.40;;
12962;SDS011;6546;49.882;8.666;2023-02-26T09:43:37;2.50;;;1.70;;
12962;SDS011;6546;49.882;8.666;2023-02-26T09:46:23;1.43;;;1.30;;
12962;SDS011;6546;49.882;8.666;2023-02-26T09:48:59;5.07;;;2.00;;
12962;SDS011;6546;49.882;8.666;2023-02-26T09:51:34;3.07;;;1.60;;
12962;SDS011;6546;49.882;8.666;2023-02-26T09:54:03;3.40;;;1.70;;
12962;SDS011;6546;49.882;8.666;2023-02-26T09:56:39;2.67;;;1.80;;
12962;SDS011;6546;49.882;8.666;2023-02-26T09:59:07;2.20;;;1.50;;
12962;SDS011;6546;49.882;8.666;2023-02-26T10:01:37;2.13;;;1.30;;
12962;SDS011;6546;49.882;8.666;2023-02-26T10:04:12;1.90;;;1.30;;
12962;SDS011;6546;49.882;8.666;2023-02-26T10:06:50;3.27;;;2.30;;
12962;SDS011;6546;49.882;8.666;2023-02-26T10:09:38;3.70;;;1.37;;
12962;SDS011;6546;49.882;8.666;2023-02-26T10:12:16;2.20;;;1.40;;
12962;SDS011;6546;49.882;8.666;2023-02-26T10:14:46;3.73;;;1.73;;
12962;SDS011;6546;49.882;8.666;2023-02-26T10:17:19;1.70;;;1.43;;
12962;SDS011;6546;49.882;8.666;2023-02-26T10:19:51;2.07;;;1.30;;
12962;SDS011;6546;49.882;8.666;2023-02-26T10:22:23;1.97;;;1.53;;
12962;SDS011;6546;49.882;8.666;2023-02-26T10:24:54;3.10;;;1.37;;
12962;SDS011;6546;49.882;8.666;2023-02-26T10:27:29;2.47;;;1.40;;
12962;SDS011;6546;49.882;8.666;2023-02-26T10:30:06;2.77;;;1.47;;
12962;SDS011;6546;49.882;8.666;2023-02-26T10:32:42;2.60;;;1.10;;
12962;SDS011;6546;49.882;8.666;2023-02-26T10:35:16;2.40;;;1.30;;
12962;SDS011;6546;49.882;8.666;2023-02-26T10:37:46;2.13;;;1.50;;
12962;SDS011;6546;49.882;8.666;2023-02-26T10:40:21;3.50;;;2.00;;
12962;SDS011;6546;49.882;8.666;2023-02-26T10:42:52;3.13;;;1.50;;
12962;SDS011;6546;49.882;8.666;2023-02-26T10:45:24;1.80;;;1.17;;
12962;SDS011;6546;49.882;8.666;2023-02-26T10:48:04;2.13;;;0.90;;
12962;SDS011;6546;49.882;8.666;2023-02-26T10:50:39;1.73;;;1.10;;
12962;SDS011;6546;49.882;8.666;2023-02-26T10:53:11;2.67;;;1.50;;
12962;SDS011;6546;49.882;8.666;2023-02-26T10:55:38;3.03;;;1.20;;
12962;SDS011;6546;49.882;8.666;2023-02-26T10:58:10;1.80;;;1.30;;
12962;SDS011;6546;49.882;8.666;2023-02-26T11:00:39;2.87;;;1.70;;
12962;SDS011;6546;49.882;8.666;2023-02-26T11:03:10;2.07;;;1.27;;
12962;SDS011;6546;49.882;8.666;2023-02-26T11:05:42;3.33;;;1.50;;
12962;SDS011;6546;49.882;8.666;2023-02-26T11:08:10;6.67;;;1.60;;
12962;SDS011;6546;49.882;8.666;2023-02-26T11:10:42;1.83;;;1.00;;
12962;SDS011;6546;49.882;8.666;2023-02-26T11:13:12;2.50;;;1.00;;
12962;SDS011;6546;49.882;8.666;2023-02-26T11:15:39;2.23;;;1.13;;
12962;SDS011;6546;49.882;8.666;2023-02-26T11:18:06;1.90;;;1.17;;
12962;SDS011;6546;49.882;8.666;2023-02-26T11:20:42;3.20;;;1.50;;
12962;SDS011;6546;49.882;8.666;2023-02-26T11:23:11;3.20;;;1.20;;
12962;SDS011;6546;49.882;8.666;2023-02-26T11:25:40;2.13;;;1.17;;
12962;SDS011;6546;49.882;8.666;2023-02-26T11:28:09;1.83;;;1.10;;
12962;SDS011;6546;49.882;8.666;2023-02-26T11:30:46;2.73;;;1.13;;
12962;SDS011;6546;49.882;8.666;2023-02-26T11:33:18;4.37;;;1.80;;
12962;SDS011;6546;49.882;8.666;2023-02-26T11:35:48;2.67;;;1.10;;
12962;SDS011;6546;49.882;8.666;2023-02-26T11:38:17;2.50;;;1.00;;
12962;SDS011;6546;49.882;8.666;2023-02-26T11:40:47;1.97;;;1.20;;
12962;SDS011;6546;49.882;8.666;2023-02-26T11:43:18;2.40;;;1.10;;
12962;SDS011;6546;49.882;8.666;2023-02-26T11:45:48;1.70;;;1.50;;
12962;SDS011;6546;49.882;8.666;2023-02-26T11:48:20;4.20;;;1.00;;
12962;SDS011;6546;49.882;8.666;2023-02-26T11:50:51;1.70;;;1.30;;
12962;SDS011;6546;49.882;8.666;2023-02-26T11:53:23;1.43;;;1.03;;
12962;SDS011;6546;49.882;8.666;2023-02-26T11:55:52;8.40;;;1.03;;
12962;SDS011;6546;49.882;8.666;2023-02-26T11:58:25;3.13;;;1.33;;
12962;SDS011;6546;49.882;8.666;2023-02-26T12:00:56;2.10;;;1.00;;
12962;SDS011;6546;49.882;8.666;2023-02-26T12:03:27;2.20;;;1.00;;
12962;SDS011;6546;49.882;8.666;2023-02-26T12:05:57;1.33;;;0.97;;
12962;SDS011;6546;49.882;8.666;2023-02-26T12:08:26;2.20;;;1.03;;
12962;SDS011;6546;49.882;8.666;2023-02-26T12:11:02;1.60;;;1.17;;
12962;SDS011;6546;49.882;8.666;2023-02-26T12:13:42;0.93;;;0.80;;
12962;SDS011;6546;49.882;8.666;2023-02-26T12:16:24;2.77;;;1.00;;
12962;SDS011;6546;49.882;8.666;2023-02-26T12:19:02;1.13;;;0.90;;
12962;SDS011;6546;49.882;8.666;2023-02-26T12:21:47;3.77;;;1.00;;
12962;SDS011;6546;49.882;8.666;2023-02-26T12:24:25;1.00;;;0.80;;
12962;SDS011;6546;49.882;8.666;2023-02-26T12:27:08;1.67;;;1.00;;
12962;SDS011;6546;49.882;8.666;2023-02-26T12:29:53;2.00;;;1.00;;
12962;SDS011;6546;49.882;8.666;2023-02-26T12:32:37;2.63;;;1.20;;
12962;SDS011;6546;49.882;8.666;2023-02-26T12:35:20;3.13;;;0.90;;
12962;SDS011;6546;49.882;8.666;2023-02-26T12:37:59;2.03;;;0.80;;
12962;SDS011;6546;49.882;8.666;2023-02-26T12:40:43;1.10;;;0.90;;
12962;SDS011;6546;49.882;8.666;2023-02-26T12:43:22;1.03;;;0.80;;
12962;SDS011;6546;49.882;8.666;2023-02-26T12:45:53;2.70;;;1.00;;
12962;SDS011;6546;49.882;8.666;2023-02-26T12:48:34;1.43;;;1.10;;
12962;SDS011;6546;49.882;8.666;2023-02-26T12:51:19;2.10;;;1.33;;
12962;SDS011;6546;49.882;8.666;2023-02-26T12:54:01;1.17;;;0.80;;
12962;SDS011;6546;49.882;8.666;2023-02-26T12:56:40;2.70;;;0.90;;
12962;SDS011;6546;49.882;8.666;2023-02-26T12:59:32;1.20;;;0.80;;
12962;SDS011;6546;49.882;8.666;2023-02-26T13:05:13;0.70;;;0.70;;
12962;SDS011;6546;49.882;8.666;2023-02-26T13:07:57;1.10;;;0.90;;
12962;SDS011;6546;49.882;8.666;2023-02-26T13:10:35;1.20;;;0.70;;
12962;SDS011;6546;49.882;8.666;2023-02-26T13:13:15;2.70;;;1.97;;
12962;SDS011;6546;49.882;8.666;2023-02-26T13:16:02;1.20;;;0.83;;
12962;SDS011;6546;49.882;8.666;2023-02-26T13:18:41;2.20;;;1.30;;
12962;SDS011;6546;49.882;8.666;2023-02-26T13:21:14;1.67;;;1.00;;
12962;SDS011;6546;49.882;8.666;2023-02-26T13:23:48;1.47;;;0.83;;
12962;SDS011;6546;49.882;8.666;2023-02-26T13:26:16;0.90;;;0.90;;
12962;SDS011;6546;49.882;8.666;2023-02-26T13:28:46;1.20;;;0.87;;
12962;SDS011;6546;49.882;8.666;2023-02-26T13:31:19;0.70;;;0.70;;
12962;SDS011;6546;49.882;8.666;2023-02-26T13:33:48;1.53;;;0.90;;
12962;SDS011;6546;49.882;8.666;2023-02-26T13:36:16;2.20;;;0.90;;
12962;SDS011;6546;49.882;8.666;2023-02-26T13:38:52;0.87;;;0.83;;
12962;SDS011;6546;49.882;8.666;2023-02-26T13:41:37;2.10;;;1.27;;
12962;SDS011;6546;49.882;8.666;2023-02-26T13:44:15;1.60;;;0.90;;
12962;SDS011;6546;49.882;8.666;2023-02-26T13:46:55;1.83;;;0.80;;
12962;SDS011;6546;49.882;8.666;2023-02-26T13:49:33;1.30;;;0.80;;
12962;SDS011;6546;49.882;8.666;2023-02-26T13:52:21;1.83;;;0.90;;
12962;SDS011;6546;49.882;8.666;2023-02-26T13:54:50;2.37;;;1.20;;
12962;SDS011;6546;49.882;8.666;2023-02-26T13:57:23;1.90;;;0.97;;
12962;SDS011;6546;49.882;8.666;2023-02-26T13:59:59;1.60;;;1.00;;
12962;SDS011;6546;49.882;8.666;2023-02-26T14:02:33;2.50;;;1.30;;
12962;SDS011;6546;49.882;8.666;2023-02-26T14:05:06;1.43;;;1.00;;
12962;SDS011;6546;49.882;8.666;2023-02-26T14:07:53;1.13;;;0.73;;
12962;SDS011;6546;49.882;8.666;2023-02-26T14:10:43;1.57;;;1.07;;
12962;SDS011;6546;49.882;8.666;2023-02-26T14:13:13;1.03;;;0.87;;
12962;SDS011;6546;49.882;8.666;2023-02-26T14:15:47;1.30;;;0.87;;
12962;SDS011;6546;49.882;8.666;2023-02-26T14:18:19;0.87;;;0.80;;
12962;SDS011;6546;49.882;8.666;2023-02-26T14:20:51;1.17;;;0.60;;
12962;SDS011;6546;49.882;8.666;2023-02-26T14:23:21;1.33;;;0.83;;
12962;SDS011;6546;49.882;8.666;2023-02-26T14:26:03;1.13;;;0.73;;
12962;SDS011;6546;49.882;8.666;2023-02-26T14:28:40;1.00;;;0.90;;
12962;SDS011;6546;49.882;8.666;2023-02-26T14:31:18;2.50;;;1.00;;
12962;SDS011;6546;49.882;8.666;2023-02-26T14:33:56;4.70;;;1.10;;
12962;SDS011;6546;49.882;8.666;2023-02-26T14:36:28;1.67;;;1.30;;
12962;SDS011;6546;49.882;8.666;2023-02-26T14:39:00;1.33;;;1.10;;
12962;SDS011;6546;49.882;8.666;2023-02-26T14:41:32;2.27;;;0.80;;
12962;SDS011;6546;49.882;8.666;2023-02-26T14:44:05;0.70;;;0.63;;
12962;SDS011;6546;49.882;8.666;2023-02-26T14:46:40;1.00;;;0.90;;
12962;SDS011;6546;49.882;8.666;2023-02-26T14:49:08;2.43;;;0.70;;
12962;SDS011;6546;49.882;8.666;2023-02-26T14:51:55;0.77;;;0.70;;
12962;SDS011;6546;49.882;8.666;2023-02-26T14:54:38;1.73;;;0.97;;
12962;SDS011;6546;49.882;8.666;2023-02-26T14:57:18;2.27;;;0.80;;
12962;SDS011;6546;49.882;8.666;2023-02-26T14:59:58;1.87;;;0.80;;
12962;SDS011;6546;49.882;8.666;2023-02-26T15:02:38;0.90;;;0.70;;
12962;SDS011;6546;49.882;8.666;2023-02-26T15:05:27;0.90;;;0.67;;
12962;SDS011;6546;49.882;8.666;2023-02-26T15:08:13;1.83;;;1.10;;
12962;SDS011;6546;49.882;8.666;2023-02-26T15:10:53;1.80;;;0.87;;
12962;SDS011;6546;49.882;8.666;2023-02-26T15:13:44;0.90;;;0.70;;
12962;SDS011;6546;49.882;8.666;2023-02-26T15:16:31;1.97;;;0.80;;
12962;SDS011;6546;49.882;8.666;2023-02-26T15:19:13;0.97;;;0.87;;
12962;SDS011;6546;49.882;8.666;2023-02-26T15:21:56;1.33;;;0.60;;
12962;SDS011;6546;49.882;8.666;2023-02-26T15:24:32;1.13;;;0.80;;
12962;SDS011;6546;49.882;8.666;2023-02-26T15:27:00;1.80;;;1.00;;
12962;SDS011;6546;49.882;8.666;2023-02-26T15:29:30;1.30;;;0.90;;
12962;SDS011;6546;49.882;8.666;2023-02-26T15:32:04;2.17;;;0.80;;
12962;SDS011;6546;49.882;8.666;2023-02-26T15:34:31;0.60;;;0.60;;